Time;durP1;ratioP1;P1;durP2;ratioP2;P2;SDS_P1;SDS_P2;PMS_P1;PMS_P2;Temp;Humidity;BMP_temperature;BMP_pressure;BME280_temperature;BME280_humidity;BME280_pressure;Samples;Min_cycle;Max_cycle;Signal;HPM_P1;HPM_P2
2022/09/14 00:00:27;;;;;;;6.20;3.30;;;;;;;14.98;89.50;99428.67;84657;1326;22582;-74
2022/09/14 00:02:55;;;;;;;;;;;;;;;14.94;89.46;99431.05;84681;1329;22571;-72
2022/09/14 00:05:06;;;;;;;4.00;3.40;;;;;;;14.88;89.70;99430.61;84665;1325;22841;-71
2022/09/14 00:07:18;;;;;;;3.70;3.40;;;;;;;14.87;89.68;99430.73;84581;1329;24178;-72
2022/09/14 00:09:27;;;;;;;3.80;3.50;;;;;;;14.85;89.76;99434.18;84708;1329;23060;-72
2022/09/14 00:11:37;;;;;;;3.70;3.40;;;;;;;14.83;89.92;99436.98;84663;1325;23886;-72
2022/09/14 00:13:51;;;;;;;3.40;2.80;;;;;;;14.82;89.85;99442.16;84673;1327;22593;-71
2022/09/14 00:16:06;;;;;;;3.10;2.90;;;;;;;14.77;89.82;99439.46;84668;1327;22676;-72
2022/09/14 00:18:16;;;;;;;2.90;2.60;;;;;;;14.74;89.67;99437.95;84666;1329;24263;-72
2022/09/14 00:20:25;;;;;;;3.30;3.10;;;;;;;14.67;89.48;99434.52;84662;1329;25619;-70
2022/09/14 00:22:36;;;;;;;3.20;2.80;;;;;;;14.60;89.37;99427.84;84665;1329;26497;-71
2022/09/14 00:24:47;;;;;;;3.00;2.70;;;;;;;14.53;89.29;99428.19;84643;1329;22587;-71
2022/09/14 00:26:57;;;;;;;3.20;2.90;;;;;;;14.45;89.18;99426.27;84690;1332;24458;-71
2022/09/14 00:29:06;;;;;;;2.60;2.40;;;;;;;14.37;89.20;99427.13;84697;1327;22677;-72
2022/09/14 00:31:21;;;;;;;2.50;2.40;;;;;;;14.28;89.02;99425.30;84658;1329;23963;-72
2022/09/14 00:33:33;;;;;;;3.80;3.00;;;;;;;14.19;89.08;99421.54;84734;1329;22678;-73
2022/09/14 00:35:41;;;;;;;3.30;3.10;;;;;;;14.10;89.16;99419.48;84677;1332;22720;-74
2022/09/14 00:37:53;;;;;;;9.90;3.60;;;;;;;14.02;89.17;99418.30;84681;1329;25327;-74
2022/09/14 00:40:02;;;;;;;4.10;3.20;;;;;;;13.93;89.21;99423.64;84753;1329;24253;-74
2022/09/14 00:42:15;;;;;;;3.00;2.80;;;;;;;13.86;89.15;99432.20;84731;1329;22565;-72
2022/09/14 00:45:07;;;;;;;3.40;3.10;;;;;;;13.77;89.25;99430.67;84691;1327;22598;-72
2022/09/14 00:47:19;;;;;;;4.10;3.80;;;;;;;13.66;89.50;99426.33;84620;1330;22644;-73
2022/09/14 00:49:33;;;;;;;4.00;3.60;;;;;;;13.61;89.72;99428.59;84729;1329;22607;-71
2022/09/14 00:51:49;;;;;;;4.70;3.60;;;;;;;13.55;89.75;99427.89;84680;1329;23969;-72
2022/09/14 00:53:58;;;;;;;4.40;4.00;;;;;;;13.51;89.86;99428.21;84687;1330;24107;-73
2022/09/14 00:56:09;;;;;;;3.80;3.50;;;;;;;13.46;89.98;99429.92;84663;1329;25442;-73
2022/09/14 00:58:20;;;;;;;4.00;3.70;;;;;;;13.43;90.19;99437.27;84666;1329;26471;-73
2022/09/14 01:00:30;;;;;;;4.70;4.40;;;;;;;13.42;90.48;99439.09;84670;1330;23876;-73
2022/09/14 01:02:39;;;;;;;4.90;4.60;;;;;;;13.44;90.83;99437.90;84685;1327;24300;-70
2022/09/14 01:04:50;;;;;;;4.80;4.50;;;;;;;13.46;91.18;99439.55;84674;1329;22697;-72
2022/09/14 01:07:03;;;;;;;4.60;4.20;;;;;;;13.49;91.30;99441.96;84643;1330;23941;-70
2022/09/14 01:09:26;;;;;;;5.40;4.90;;;;;;;13.52;91.42;99435.64;84729;1332;23886;-72
2022/09/14 01:11:57;;;;;;;4.60;4.20;;;;;;;13.53;91.56;99437.64;84685;1329;22693;-70
2022/09/14 01:14:15;;;;;;;5.50;5.00;;;;;;;13.56;91.78;99436.29;84702;1324;22690;-71
2022/09/14 01:16:36;;;;;;;6.10;5.00;;;;;;;13.56;91.73;99431.15;84706;1329;26641;-71
2022/09/14 01:18:47;;;;;;;5.60;4.40;;;;;;;13.57;91.87;99432.14;84708;1325;22945;-73
2022/09/14 01:21:01;;;;;;;5.70;5.20;;;;;;;13.58;91.99;99422.80;84642;1333;22580;-75
2022/09/14 01:23:24;;;;;;;6.20;5.20;;;;;;;13.59;92.00;99419.60;84729;1330;25516;-72
2022/09/14 01:26:10;;;;;;;5.30;4.80;;;;;;;13.60;92.10;99421.99;84720;1329;24300;-70
2022/09/14 01:28:22;;;;;;;5.30;4.80;;;;;;;13.60;92.15;99417.42;84571;1333;22766;-72
2022/09/14 01:30:38;;;;;;;5.70;5.20;;;;;;;13.60;92.23;99418.44;84674;1330;22670;-70
2022/09/14 01:32:51;;;;;;;5.70;5.20;;;;;;;13.61;92.19;99413.83;84593;1329;22585;-72
2022/09/14 01:35:06;;;;;;;6.50;5.10;;;;;;;13.60;92.16;99410.58;84725;1330;25445;-70
2022/09/14 01:37:19;;;;;;;5.80;5.30;;;;;;;13.58;92.12;99409.30;84727;1329;22691;-72
2022/09/14 01:39:31;;;;;;;6.00;5.40;;;;;;;13.56;92.39;99410.13;84690;1329;22601;-73
2022/09/14 01:41:41;;;;;;;6.20;5.10;;;;;;;13.56;92.51;99412.29;84673;1329;22656;-70
2022/09/14 01:43:54;;;;;;;5.70;5.30;;;;;;;13.54;92.52;99412.77;84681;1329;25301;-74
2022/09/14 01:46:08;;;;;;;6.10;5.50;;;;;;;13.51;92.43;99410.11;84572;1333;23419;-71
2022/09/14 01:48:23;;;;;;;7.40;6.70;;;;;;;13.50;92.58;99404.59;84619;1333;22773;-72
2022/09/14 01:50:39;;;;;;;6.30;5.80;;;;;;;13.48;92.60;99399.28;84688;1329;22607;-73
2022/09/14 01:52:53;;;;;;;6.30;5.80;;;;;;;13.47;92.69;99399.39;84638;1330;22594;-73
2022/09/14 01:55:09;;;;;;;7.60;7.00;;;;;;;13.46;92.82;99402.38;84701;1332;22600;-70
2022/09/14 01:57:23;;;;;;;7.70;6.70;;;;;;;13.47;92.89;99406.23;84675;1329;22844;-75
2022/09/14 01:59:40;;;;;;;7.50;6.80;;;;;;;13.47;92.90;99402.35;84671;1323;25463;-73
2022/09/14 02:01:54;;;;;;;8.40;7.70;;;;;;;13.49;93.12;99401.67;84659;1329;22625;-70
2022/09/14 02:04:06;;;;;;;8.50;7.70;;;;;;;13.51;93.29;99396.64;84617;1327;22731;-73
2022/09/14 02:06:25;;;;;;;9.60;8.70;;;;;;;13.54;93.61;99393.98;84618;1333;22680;-73
2022/09/14 02:08:35;;;;;;;8.50;7.70;;;;;;;13.57;93.64;99390.63;84675;1331;25014;-75
2022/09/14 02:10:44;;;;;;;10.00;9.00;;;;;;;13.59;93.64;99386.63;84643;1329;24148;-73
2022/09/14 02:12:59;;;;;;;10.10;9.10;;;;;;;13.61;93.70;99387.58;84662;1329;22616;-73
2022/09/14 02:15:15;;;;;;;9.70;8.80;;;;;;;13.62;93.71;99386.94;84664;1330;22663;-73
2022/09/14 02:17:26;;;;;;;10.10;9.20;;;;;;;13.63;93.83;99387.03;84622;1329;25352;-75
2022/09/14 02:19:40;;;;;;;12.40;9.90;;;;;;;13.66;93.83;99385.15;84578;1332;25445;-70
2022/09/14 02:21:48;;;;;;;10.00;9.10;;;;;;;13.68;93.96;99381.67;84587;1333;22592;-71
2022/09/14 02:24:00;;;;;;;10.50;9.50;;;;;;;13.70;94.03;99386.64;84646;1329;22577;-72
2022/09/14 02:26:11;;;;;;;10.90;9.60;;;;;;;13.73;94.08;99390.29;84559;1334;22614;-72
2022/09/14 02:28:20;;;;;;;11.90;10.80;;;;;;;13.75;94.23;99390.11;84591;1328;24058;-72
2022/09/14 02:30:32;;;;;;;13.70;11.70;;;;;;;13.78;94.21;99388.55;84547;1333;22640;-72
2022/09/14 02:32:55;;;;;;;13.60;12.30;;;;;;;13.79;94.36;99393.00;84557;1331;22593;-73
2022/09/14 02:35:11;;;;;;;15.00;13.50;;;;;;;13.81;94.43;99395.84;84603;1332;22662;-73
2022/09/14 02:37:27;;;;;;;15.00;13.30;;;;;;;13.83;94.64;99390.63;84592;1330;22643;-73
2022/09/14 02:39:57;;;;;;;15.90;14.30;;;;;;;13.86;94.60;99390.83;84665;1333;22626;-71
2022/09/14 02:42:21;;;;;;;19.40;17.10;;;;;;;13.88;94.74;99390.14;84629;1334;22792;-70
2022/09/14 02:44:36;;;;;;;19.20;17.10;;;;;;;13.90;94.98;99390.15;84625;1331;22776;-73
2022/09/14 02:47:00;;;;;;;22.20;18.90;;;;;;;13.92;95.00;99385.65;84687;1329;22792;-75
2022/09/14 02:49:16;;;;;;;20.80;18.70;;;;;;;13.95;95.07;99385.29;84676;1329;22606;-70
2022/09/14 02:51:47;;;;;;;22.40;20.10;;;;;;;13.97;95.05;99385.70;84636;1330;22607;-70
2022/09/14 02:53:59;;;;;;;24.80;22.10;;;;;;;13.98;95.17;99389.14;84653;1330;23915;-77
2022/09/14 02:56:11;;;;;;;23.70;21.30;;;;;;;13.99;95.06;99388.71;84656;1329;24042;-75
2022/09/14 02:58:24;;;;;;;22.50;20.10;;;;;;;14.00;95.19;99388.46;84705;1329;24324;-73
2022/09/14 03:00:37;;;;;;;22.50;20.10;;;;;;;14.00;95.13;99386.20;84555;1335;25334;-76
2022/09/14 03:02:46;;;;;;;23.50;21.00;;;;;;;14.01;95.12;99386.96;84650;1330;22600;-75
2022/09/14 03:04:55;;;;;;;24.30;20.10;;;;;;;14.03;95.13;99388.27;84651;1330;24147;-73
2022/09/14 03:07:04;;;;;;;25.10;22.40;;;;;;;14.03;95.10;99380.92;84644;1332;22589;-73
2022/09/14 03:09:13;;;;;;;24.00;21.50;;;;;;;14.03;95.11;99386.86;84545;1331;22618;-74
2022/09/14 03:11:24;;;;;;;23.40;20.90;;;;;;;14.01;95.06;99388.91;84623;1329;22611;-70
2022/09/14 03:13:36;;;;;;;25.50;21.30;;;;;;;14.00;95.05;99386.16;84641;1330;22603;-74
2022/09/14 03:15:45;;;;;;;25.50;21.90;;;;;;;14.00;95.13;99386.20;84636;1329;22697;-74
2022/09/14 03:17:53;;;;;;;24.80;21.90;;;;;;;14.00;95.34;99384.27;84635;1331;22765;-73
2022/09/14 03:20:08;;;;;;;24.80;22.00;;;;;;;14.00;95.42;99383.04;84636;1331;22584;-71
2022/09/14 03:22:21;;;;;;;26.50;22.10;;;;;;;14.00;95.50;99381.45;84621;1330;22673;-70
2022/09/14 03:24:31;;;;;;;27.40;23.60;;;;;;;14.00;95.54;99380.06;84632;1330;22588;-73
2022/09/14 03:26:46;;;;;;;24.90;22.20;;;;;;;13.99;95.59;99385.89;84674;1329;22813;-73
2022/09/14 03:28:56;;;;;;;27.60;23.30;;;;;;;13.99;95.53;99386.60;84632;1330;25422;-73
2022/09/14 03:31:11;;;;;;;36.30;24.80;;;;;;;13.97;95.49;99384.59;84608;1330;25449;-73
2022/09/14 03:33:28;;;;;;;28.80;24.20;;;;;;;13.95;95.37;99378.95;84651;1330;22618;-72
2022/09/14 03:35:37;;;;;;;29.60;25.30;;;;;;;13.94;95.35;99375.73;84653;1332;23983;-72
2022/09/14 03:37:48;;;;;;;31.20;26.50;;;;;;;13.92;95.54;99365.27;84681;1333;22827;-71
2022/09/14 03:40:00;;;;;;;29.40;24.30;;;;;;;13.92;95.64;99355.86;84615;1327;22699;-72
2022/09/14 03:42:12;;;;;;;27.50;23.90;;;;;;;13.90;95.52;99346.34;84586;1331;22899;-70
2022/09/14 03:44:24;;;;;;;29.10;24.00;;;;;;;13.87;95.44;99353.39;84661;1330;26047;-72
2022/09/14 03:46:39;;;;;;;31.90;24.90;;;;;;;13.84;95.63;99361.65;84616;1330;22603;-72
2022/09/14 03:48:48;;;;;;;27.30;24.20;;;;;;;13.82;95.71;99362.11;84652;1329;22986;-72
2022/09/14 03:51:02;;;;;;;29.70;24.10;;;;;;;13.81;95.60;99364.81;84628;1330;25271;-73
2022/09/14 03:53:14;;;;;;;32.90;25.50;;;;;;;13.77;95.55;99370.34;84619;1330;26665;-75
2022/09/14 03:55:22;;;;;;;30.20;25.40;;;;;;;13.75;95.51;99369.27;84634;1329;22632;-72
2022/09/14 03:57:31;;;;;;;31.30;25.70;;;;;;;13.73;95.54;99367.48;84601;1333;22733;-74
2022/09/14 03:59:40;;;;;;;33.90;26.40;;;;;;;13.71;95.69;99372.20;84658;1330;23053;-72
2022/09/14 04:01:49;;;;;;;34.30;27.30;;;;;;;13.68;95.70;99372.73;84642;1330;22635;-73
2022/09/14 04:04:03;;;;;;;29.50;26.30;;;;;;;13.65;95.65;99373.59;84646;1332;22720;-73
2022/09/14 04:06:12;;;;;;;33.70;25.30;;;;;;;13.62;95.53;99367.52;84636;1328;22649;-70
2022/09/14 04:08:20;;;;;;;;;;;;;;;13.60;95.67;99368.38;84692;1330;23908;-72
2022/09/14 04:10:29;;;;;;;33.50;26.10;;;;;;;13.56;95.93;99368.45;84645;1330;22604;-74
2022/09/14 04:12:39;;;;;;;30.00;24.30;;;;;;;13.55;95.96;99366.05;84665;1330;22630;-73
2022/09/14 04:14:54;;;;;;;32.60;25.00;;;;;;;13.55;96.15;99368.71;84612;1334;24445;-73
2022/09/14 04:17:02;;;;;;;33.40;26.70;;;;;;;13.55;96.30;99367.14;84704;1333;24233;-71
2022/09/14 04:19:13;;;;;;;36.10;27.50;;;;;;;13.55;96.45;99366.21;84575;1332;22567;-73
2022/09/14 04:21:27;;;;;;;33.60;25.50;;;;;;;13.56;96.54;99364.06;84586;1331;25978;-74
2022/09/14 04:23:36;;;;;;;33.90;25.60;;;;;;;13.56;96.46;99365.11;84699;1330;24084;-72
2022/09/14 04:25:49;;;;;;;36.70;27.20;;;;;;;13.57;96.79;99364.17;84653;1330;23069;-72
2022/09/14 04:28:01;;;;;;;32.00;26.80;;;;;;;13.57;96.85;99362.74;84649;1333;25272;-75
2022/09/14 04:30:16;;;;;;;31.60;26.40;;;;;;;13.58;96.87;99355.66;84683;1330;25266;-71
2022/09/14 04:32:27;;;;;;;34.60;26.90;;;;;;;13.60;96.85;99355.05;84525;1333;24002;-71
2022/09/14 04:34:36;;;;;;;32.30;26.40;;;;;;;13.62;96.97;99354.20;84622;1329;22612;-73
2022/09/14 04:36:45;;;;;;;32.20;24.60;;;;;;;13.65;97.10;99355.94;84630;1329;22682;-72
2022/09/14 04:38:59;;;;;;;33.70;26.80;;;;;;;13.67;97.06;99353.52;84655;1327;22849;-73
2022/09/14 04:41:10;;;;;;;32.80;26.00;;;;;;;13.68;97.06;99356.08;84557;1331;23978;-72
2022/09/14 04:43:21;;;;;;;32.40;26.30;;;;;;;13.71;97.11;99359.27;84630;1329;22674;-73
2022/09/14 04:45:30;;;;;;;39.10;28.20;;;;;;;13.72;97.07;99358.11;84621;1333;22616;-74
2022/09/14 04:47:40;;;;;;;35.30;28.20;;;;;;;13.73;97.16;99355.90;84613;1330;22583;-75
2022/09/14 04:49:49;;;;;;;38.20;28.80;;;;;;;13.77;97.25;99354.27;84581;1332;22949;-73
2022/09/14 04:51:58;;;;;;;35.20;29.20;;;;;;;13.80;97.35;99350.20;84654;1333;22572;-75
2022/09/14 04:54:07;;;;;;;38.40;27.70;;;;;;;13.84;97.39;99353.08;84666;1333;25187;-73
2022/09/14 04:56:16;;;;;;;31.70;26.30;;;;;;;13.88;97.40;99352.63;84641;1329;25340;-73
2022/09/14 04:58:29;;;;;;;35.50;27.10;;;;;;;13.91;97.38;99351.73;84642;1330;22947;-75
2022/09/14 05:00:39;;;;;;;32.70;26.60;;;;;;;13.95;97.46;99351.79;84674;1330;22707;-74
2022/09/14 05:02:53;;;;;;;33.10;26.20;;;;;;;13.98;97.31;99349.48;84664;1329;22745;-74
2022/09/14 05:05:03;;;;;;;30.30;26.20;;;;;;;14.02;97.29;99356.41;84608;1333;22616;-75
2022/09/14 05:07:12;;;;;;;;;;;;;;;14.07;97.47;99357.84;84688;1330;22563;-75
2022/09/14 05:09:21;;;;;;;32.10;23.50;;;;;;;14.10;97.70;99358.13;84676;1330;23966;-73
2022/09/14 05:11:34;;;;;;;33.20;23.90;;;;;;;14.15;97.64;99362.16;84675;1330;22583;-72
2022/09/14 05:13:43;;;;;;;29.80;24.60;;;;;;;14.19;97.45;99362.27;84637;1329;22610;-72
2022/09/14 05:15:52;;;;;;;30.10;23.30;;;;;;;14.20;97.28;99356.92;84679;1326;24284;-72
2022/09/14 05:18:01;;;;;;;27.80;23.60;;;;;;;14.23;97.24;99362.50;84680;1329;24327;-74
2022/09/14 05:20:13;;;;;;;30.00;24.20;;;;;;;14.27;97.41;99363.26;84667;1330;25266;-74
2022/09/14 05:22:25;;;;;;;30.40;25.30;;;;;;;14.34;97.57;99359.29;84667;1330;22631;-74
2022/09/14 05:24:39;;;;;;;30.10;23.90;;;;;;;14.43;97.82;99354.61;84660;1330;22843;-74
2022/09/14 05:26:51;;;;;;;30.80;23.70;;;;;;;14.52;97.95;99353.85;84609;1329;22587;-74
2022/09/14 05:29:04;;;;;;;27.10;22.30;;;;;;;14.55;97.57;99350.80;84620;1333;22850;-75
2022/09/14 05:31:14;;;;;;;28.90;22.00;;;;;;;14.59;97.39;99354.73;84636;1333;25458;-73
2022/09/14 05:33:26;;;;;;;29.10;22.40;;;;;;;14.70;97.90;99351.86;84638;1331;22848;-71
2022/09/14 05:35:35;;;;;;;27.40;21.60;;;;;;;14.84;98.22;99350.86;84637;1329;22599;-73
2022/09/14 05:37:54;;;;;;;25.70;21.40;;;;;;;14.91;97.89;99354.87;84274;1329;504535;-71
2022/09/14 05:40:03;;;;;;;25.80;21.50;;;;;;;15.01;97.68;99352.66;84557;1334;26233;-71
2022/09/14 05:42:12;;;;;;;25.70;20.60;;;;;;;15.10;97.84;99357.20;84656;1330;23977;-70
2022/09/14 05:44:26;;;;;;;23.20;20.40;;;;;;;15.17;97.56;99361.09;84608;1332;22594;-72
2022/09/14 05:46:35;;;;;;;24.40;21.70;;;;;;;15.19;97.09;99360.98;84648;1331;22790;-72
2022/09/14 05:48:44;;;;;;;24.50;20.20;;;;;;;15.21;97.06;99357.07;84681;1329;22703;-70
2022/09/14 05:51:00;;;;;;;22.20;19.70;;;;;;;15.23;96.69;99358.17;84679;1329;25448;-70
2022/09/14 05:53:16;;;;;;;25.60;20.30;;;;;;;15.23;96.29;99356.30;84694;1330;23914;-70
2022/09/14 05:55:26;;;;;;;25.50;20.70;;;;;;;15.22;96.17;99355.29;84699;1333;24112;-71
2022/09/14 05:57:35;;;;;;;27.80;21.40;;;;;;;15.21;96.04;99358.13;84669;1333;23982;-71
2022/09/14 05:59:45;;;;;;;26.00;20.30;;;;;;;15.24;96.11;99355.31;84646;1332;22754;-71
2022/09/14 06:01:55;;;;;;;30.40;23.70;;;;;;;15.27;96.10;99354.44;84664;1330;22592;-73
2022/09/14 06:04:04;;;;;;;33.00;24.50;;;;;;;15.28;96.13;99352.44;84660;1330;22576;-71
2022/09/14 06:06:17;;;;;;;33.30;23.70;;;;;;;15.27;95.89;99348.64;84616;1330;24251;-75
2022/09/14 06:08:27;;;;;;;34.50;24.90;;;;;;;15.27;95.83;99349.32;84653;1330;22618;-70
2022/09/14 06:10:39;;;;;;;33.20;23.10;;;;;;;15.27;95.81;99351.42;84647;1330;25509;-74
2022/09/14 06:12:49;;;;;;;28.90;24.00;;;;;;;15.28;95.62;99355.58;84561;1333;22607;-71
2022/09/14 06:14:57;;;;;;;30.10;23.70;;;;;;;15.25;95.35;99357.71;84647;1333;22570;-74
2022/09/14 06:17:07;;;;;;;33.10;23.90;;;;;;;15.23;95.45;99362.41;84642;1333;22652;-71
2022/09/14 06:19:19;;;;;;;32.40;25.40;;;;;;;15.24;95.46;99362.89;84681;1332;22609;-69
2022/09/14 06:21:34;;;;;;;27.40;22.50;;;;;;;15.25;95.30;99366.51;84625;1330;23945;-71
2022/09/14 06:23:46;;;;;;;26.90;22.40;;;;;;;15.27;95.30;99369.67;84640;1333;22848;-74
2022/09/14 06:26:00;;;;;;;24.80;20.50;;;;;;;15.30;95.27;99375.06;84535;1331;23008;-71
2022/09/14 06:28:10;;;;;;;27.10;21.10;;;;;;;15.32;94.99;99377.38;84647;1332;22770;-71
2022/09/14 06:30:20;;;;;;;23.70;20.00;;;;;;;15.34;94.81;99376.94;84644;1333;22629;-73
2022/09/14 06:32:31;;;;;;;22.80;20.00;;;;;;;15.35;94.82;99372.28;84647;1331;22607;-71
2022/09/14 06:34:42;;;;;;;22.00;19.70;;;;;;;15.35;94.77;99372.57;84693;1329;22854;-72
2022/09/14 06:36:54;;;;;;;22.90;19.60;;;;;;;15.38;94.55;99376.45;84628;1333;24297;-73
2022/09/14 06:39:03;;;;;;;22.80;19.90;;;;;;;15.39;94.65;99377.02;84586;1335;25618;-71
2022/09/14 06:41:18;;;;;;;25.10;20.20;;;;;;;15.42;94.59;99377.70;84627;1330;22591;-73
2022/09/14 06:43:30;;;;;;;25.90;20.10;;;;;;;15.45;94.59;99374.45;84550;1335;24216;-73
2022/09/14 06:45:44;;;;;;;24.40;21.20;;;;;;;15.48;94.49;99377.58;84632;1329;24318;-73
2022/09/14 06:47:56;;;;;;;26.70;19.50;;;;;;;15.50;94.40;99382.36;84649;1333;22643;-69
2022/09/14 06:50:07;;;;;;;24.50;19.70;;;;;;;15.51;94.06;99388.98;84647;1330;24404;-72
2022/09/14 06:52:16;;;;;;;24.90;19.80;;;;;;;15.51;93.82;99387.26;84610;1330;24247;-71
2022/09/14 06:54:32;;;;;;;29.70;20.20;;;;;;;15.50;93.55;99390.31;84647;1330;24269;-71
2022/09/14 06:57:07;;;;;;;26.90;20.20;;;;;;;15.51;93.72;99389.50;84556;1335;22630;-71
2022/09/14 06:59:38;;;;;;;23.10;20.50;;;;;;;15.52;93.63;99390.53;84655;1331;22634;-71
2022/09/14 07:01:49;;;;;;;22.40;19.40;;;;;;;15.57;93.99;99387.36;84539;1334;22712;-72
2022/09/14 07:04:00;;;;;;;24.20;20.20;;;;;;;15.67;94.42;99387.27;84576;1334;22599;-71
2022/09/14 07:06:13;;;;;;;25.60;22.10;;;;;;;15.85;95.01;99386.17;84610;1331;23977;-72
2022/09/14 07:08:24;;;;;;;28.60;20.20;;;;;;;16.03;95.31;99391.60;84643;1333;22576;-71
2022/09/14 07:10:35;;;;;;;23.20;20.70;;;;;;;16.17;95.03;99390.75;84610;1328;24244;-71
2022/09/14 07:12:44;;;;;;;23.30;20.50;;;;;;;16.33;95.03;99392.55;84656;1331;22705;-71
2022/09/14 07:14:54;;;;;;;;;;;;;;;16.56;95.72;99395.48;84669;1330;23859;-70
2022/09/14 07:17:16;;;;;;;26.00;20.30;;;;;;;16.82;95.74;99396.78;84640;1329;22556;-72
2022/09/14 07:19:30;;;;;;;25.30;18.10;;;;;;;17.11;95.27;99397.59;84697;1329;22586;-72
2022/09/14 07:21:43;;;;;;;24.90;21.10;;;;;;;17.37;94.82;99398.49;84644;1330;23931;-73
2022/09/14 07:23:57;;;;;;;21.80;18.70;;;;;;;17.58;93.92;99403.46;84653;1330;22589;-72
2022/09/14 07:26:08;;;;;;;23.10;17.70;;;;;;;17.73;92.89;99403.09;84682;1329;22616;-71
2022/09/14 07:28:24;;;;;;;21.60;18.30;;;;;;;17.89;92.14;99404.13;84678;1333;22589;-72
2022/09/14 07:30:37;;;;;;;19.00;17.00;;;;;;;18.01;91.27;99403.60;84651;1333;22842;-70
2022/09/14 07:32:46;;;;;;;20.30;18.30;;;;;;;18.20;90.65;99403.60;84667;1333;23845;-69
2022/09/14 07:34:55;;;;;;;19.20;16.60;;;;;;;18.53;91.13;99403.94;84667;1330;22763;-72
2022/09/14 07:37:07;;;;;;;19.30;15.00;;;;;;;18.72;89.95;99400.60;84639;1330;22559;-74
2022/09/14 07:39:20;;;;;;;21.40;15.60;;;;;;;18.74;88.02;99403.54;84627;1333;22592;-69
2022/09/14 07:41:31;;;;;;;20.80;15.40;;;;;;;18.69;86.36;99399.23;84651;1333;22639;-71
2022/09/14 07:43:42;;;;;;;15.30;13.70;;;;;;;18.67;85.92;99400.59;84632;1333;22643;-70
2022/09/14 07:45:51;;;;;;;18.50;15.20;;;;;;;18.76;85.65;99398.05;84616;1330;22649;-70
2022/09/14 07:48:01;;;;;;;14.50;12.00;;;;;;;18.90;85.44;99397.57;84624;1330;22619;-71
2022/09/14 07:50:13;;;;;;;14.10;12.80;;;;;;;19.00;84.53;99393.84;84647;1333;22688;-72
2022/09/14 07:52:22;;;;;;;13.40;11.40;;;;;;;19.56;85.67;99387.40;84647;1330;25673;-72
2022/09/14 07:54:36;;;;;;;12.80;10.30;;;;;;;20.45;86.01;99388.73;84620;1330;22644;-74
2022/09/14 07:56:49;;;;;;;14.80;11.40;;;;;;;21.47;82.72;99385.80;84658;1331;22596;-72
2022/09/14 07:58:58;;;;;;;10.70;9.70;;;;;;;22.07;78.46;99382.55;84669;1333;22597;-72
2022/09/14 08:01:11;;;;;;;12.50;9.80;;;;;;;22.58;77.85;99382.02;84631;1333;23934;-72
2022/09/14 08:03:20;;;;;;;11.40;9.10;;;;;;;23.49;73.88;99387.84;84580;1334;23445;-73
2022/09/14 08:05:29;;;;;;;15.00;8.60;;;;;;;24.30;70.53;99384.20;84661;1330;22545;-73
2022/09/14 08:07:42;;;;;;;11.00;7.40;;;;;;;24.86;67.40;99384.88;84704;1329;22713;-72
2022/09/14 08:09:50;;;;;;;8.70;7.00;;;;;;;25.00;65.29;99387.55;84681;1329;25452;-70
2022/09/14 08:12:05;;;;;;;12.40;7.00;;;;;;;25.52;63.41;99386.80;84678;1331;22735;-71
2022/09/14 08:14:17;;;;;;;7.90;7.20;;;;;;;26.13;61.97;99386.92;84689;1333;22576;-71
2022/09/14 08:16:29;;;;;;;7.90;7.10;;;;;;;26.56;58.95;99384.98;84677;1333;22667;-70
2022/09/14 08:18:44;;;;;;;8.90;6.90;;;;;;;26.61;57.97;99384.40;84590;1334;22684;-72
2022/09/14 08:20:54;;;;;;;8.80;6.90;;;;;;;26.18;55.78;99380.95;84638;1332;22635;-73
2022/09/14 08:23:03;;;;;;;9.10;6.60;;;;;;;25.80;55.99;99388.44;84626;1330;22621;-72
2022/09/14 08:25:15;;;;;;;7.50;5.80;;;;;;;25.62;56.15;99392.89;84636;1333;24249;-73
2022/09/14 08:27:24;;;;;;;7.80;6.30;;;;;;;25.25;56.12;99395.77;84608;1328;22725;-74
2022/09/14 08:29:33;;;;;;;8.40;6.40;;;;;;;24.86;56.26;99398.75;84635;1330;25439;-72
2022/09/14 08:31:45;;;;;;;10.40;6.60;;;;;;;24.46;56.80;99399.63;84605;1333;23947;-72
2022/09/14 08:33:57;;;;;;;8.80;5.60;;;;;;;24.31;57.77;99399.20;84654;1329;24252;-72
2022/09/14 08:36:08;;;;;;;5.90;5.10;;;;;;;24.14;57.37;99399.32;84626;1329;24371;-72
2022/09/14 08:38:18;;;;;;;6.40;5.00;;;;;;;24.09;57.64;99395.45;84667;1333;22873;-72
2022/09/14 08:40:27;;;;;;;8.50;5.30;;;;;;;24.37;57.75;99397.16;84623;1333;23925;-71
2022/09/14 08:42:39;;;;;;;6.40;4.50;;;;;;;24.89;57.53;99392.41;84614;1333;22622;-71
2022/09/14 08:44:52;;;;;;;8.70;4.20;;;;;;;25.04;55.85;99393.60;84675;1330;22705;-72
2022/09/14 08:47:06;;;;;;;6.50;4.90;;;;;;;24.89;54.67;99391.98;84640;1333;25929;-72
2022/09/14 08:49:22;;;;;;;7.10;4.70;;;;;;;25.07;55.16;99389.11;84662;1330;22725;-72
2022/09/14 08:51:31;;;;;;;9.80;5.20;;;;;;;25.20;54.99;99381.36;84631;1330;22647;-72
2022/09/14 08:53:42;;;;;;;6.70;4.20;;;;;;;25.11;54.63;99383.27;84664;1331;22592;-73
2022/09/14 08:55:53;;;;;;;8.40;4.40;;;;;;;25.58;55.29;99383.58;84570;1333;22582;-73
2022/09/14 08:58:06;;;;;;;8.00;4.60;;;;;;;25.96;54.13;99371.93;84644;1332;22612;-73
2022/09/14 09:00:26;;;;;;;7.10;3.90;;;;;;;25.77;53.05;99371.05;84691;1330;26675;-74
2022/09/14 09:03:04;;;;;;;7.90;5.00;;;;;;;25.30;52.99;99376.05;84554;1331;22819;-74
2022/09/14 09:05:30;;;;;;;4.10;3.70;;;;;;;24.78;53.07;99373.77;84633;1333;26494;-72
2022/09/14 09:07:42;;;;;;;8.20;4.30;;;;;;;24.31;53.40;99372.84;84636;1333;22607;-72
2022/09/14 09:09:52;;;;;;;4.90;4.10;;;;;;;23.87;53.96;99375.89;84642;1330;22630;-72
2022/09/14 09:12:09;;;;;;;5.70;3.30;;;;;;;23.42;54.74;99378.02;84630;1330;22638;-72
2022/09/14 09:14:24;;;;;;;4.50;3.50;;;;;;;23.00;55.31;99382.91;84618;1331;22741;-72
2022/09/14 09:16:34;;;;;;;9.30;3.80;;;;;;;22.65;56.34;99381.11;84630;1330;22689;-71
2022/09/14 09:18:46;;;;;;;6.90;4.30;;;;;;;22.36;56.69;99384.49;84642;1330;22626;-72
2022/09/14 09:21:01;;;;;;;7.80;3.60;;;;;;;22.20;57.71;99385.96;84624;1329;22830;-72
2022/09/14 09:23:17;;;;;;;9.40;4.60;;;;;;;22.13;57.95;99383.48;84648;1330;24313;-73
2022/09/14 09:25:30;;;;;;;7.50;4.10;;;;;;;22.00;58.39;99383.30;84625;1332;22580;-72
2022/09/14 09:27:42;;;;;;;9.00;4.20;;;;;;;21.82;58.50;99381.70;84641;1325;22586;-71
2022/09/14 09:29:50;;;;;;;5.90;4.00;;;;;;;21.64;58.95;99383.91;84670;1330;22776;-72
2022/09/14 09:32:02;;;;;;;10.00;4.80;;;;;;;21.64;60.09;99385.90;84630;1330;22647;-72
2022/09/14 09:34:11;;;;;;;4.60;3.40;;;;;;;21.85;60.50;99378.65;84648;1332;25263;-72
2022/09/14 09:36:20;;;;;;;6.30;3.80;;;;;;;21.88;59.81;99378.71;84651;1330;22587;-72
2022/09/14 09:38:30;;;;;;;8.90;3.10;;;;;;;21.79;59.69;99375.13;84635;1330;22597;-72
2022/09/14 09:40:46;;;;;;;7.60;4.80;;;;;;;21.68;59.36;99380.72;84654;1330;22711;-71
2022/09/14 09:43:13;;;;;;;6.60;4.10;;;;;;;21.60;59.71;99379.21;84560;1332;25645;-72
2022/09/14 09:45:26;;;;;;;7.20;4.00;;;;;;;21.67;60.10;99380.08;84623;1329;22574;-73
2022/09/14 09:47:37;;;;;;;8.00;3.50;;;;;;;21.69;60.22;99382.93;84634;1330;22862;-73
2022/09/14 09:49:47;;;;;;;6.70;3.30;;;;;;;21.66;60.27;99381.93;84667;1325;22669;-72
2022/09/14 09:52:05;;;;;;;6.40;3.80;;;;;;;21.54;58.92;99384.52;84679;1333;22648;-73
2022/09/14 09:54:28;;;;;;;5.70;3.40;;;;;;;21.51;59.62;99385.56;84670;1330;22608;-71
2022/09/14 09:56:50;;;;;;;5.30;3.50;;;;;;;21.70;60.20;99379.63;84642;1320;22832;-70
2022/09/14 09:58:59;;;;;;;6.00;3.30;;;;;;;21.87;60.43;99379.14;84634;1329;22723;-72
2022/09/14 10:01:29;;;;;;;5.00;3.60;;;;;;;22.01;59.69;99377.04;84635;1333;22597;-72
2022/09/14 10:03:41;;;;;;;4.60;3.80;;;;;;;22.14;59.47;99376.06;84565;1329;22592;-71
2022/09/14 10:05:49;;;;;;;4.10;3.60;;;;;;;22.24;59.31;99373.27;84634;1330;26488;-71
2022/09/14 10:08:02;;;;;;;7.90;4.20;;;;;;;22.33;59.15;99374.95;84626;1330;23113;-71
2022/09/14 10:10:13;;;;;;;9.30;3.90;;;;;;;22.40;58.55;99369.96;84642;1330;22591;-71
2022/09/14 10:12:23;;;;;;;6.70;4.40;;;;;;;22.43;58.07;99372.79;84538;1332;22679;-71
2022/09/14 10:14:34;;;;;;;6.80;4.80;;;;;;;22.49;58.25;99373.77;84654;1329;22595;-72
2022/09/14 10:16:46;;;;;;;6.00;4.40;;;;;;;22.54;57.45;99372.34;84625;1331;22596;-73